Site contains unofficial IBTrACS data. Visit the IBTrACS Website to access archived data.

1860 Hurricane NOT_NAMED (1860259N27296)


IBTrACS version v04r00. Visit IBTrACS website for data access.
Please direct all questions to the IBTrACS Q and A forum

Storm track - Intensity - Wind Radii - Intensity Data - Source Data - All data

Summary Information

Storm ID 1860259N27296
Start Sep 14 12Z
Max Intensity 65 kt (Sep 16 18Z)
End Sep 21 18Z
ATCF IDs
Track status Best track data.

Storm track plot

Map of storm track

Intensity plots

Map of storm track

Radial wind information

No radial wind information for this storm


Position and Intensity Table

BASIN ISO_TIME_________ NATURE LAT LON MLC WIND
degrees north degrees east kts
NA 1860-09-14 12:00:00 TS 26.50 -64.50 30
NA 15:00:00 TS 26.76 -64.71 30
NA 18:00:00 TS 27.00 -64.90 30
NA 21:00:00 TS 27.21 -65.06 30
NA 1860-09-15 00:00:00 TS 27.40 -65.20 30
NA 03:00:00 TS 27.60 -65.35 30
NA 06:00:00 TS 27.80 -65.50 30
NA 09:00:00 TS 27.99 -65.66 32
NA 12:00:00 TS 28.20 -65.80 35
NA 15:00:00 TS 28.45 -65.91 37
NA 18:00:00 TS 28.70 -66.00 40
NA 21:00:00 TS 28.91 -66.10 45
NA 1860-09-16 00:00:00 TS 29.10 -66.20 50
NA 03:00:00 TS 29.29 -66.30 55
NA 06:00:00 TS 29.50 -66.40 60
NA 09:00:00 TS 29.76 -66.49 60
NA 12:00:00 TS 30.00 -66.60 60
NA 15:00:00 TS 30.17 -66.79 62
NA 18:00:00 TS 30.30 -67.00 65
NA 21:00:00 TS 30.40 -67.20 65
NA 1860-09-17 00:00:00 TS 30.50 -67.40 65
NA 03:00:00 TS 30.65 -67.60 65
NA 06:00:00 TS 30.80 -67.80 65
NA 09:00:00 TS 30.90 -68.01 65
NA 12:00:00 TS 31.00 -68.20 65
NA 15:00:00 TS 31.14 -68.36 65
NA 18:00:00 TS 31.30 -68.50 65
NA 21:00:00 TS 31.45 -68.65 65
NA 1860-09-18 00:00:00 TS 31.60 -68.80 65
NA 03:00:00 TS 31.75 -68.95 65
NA 06:00:00 TS 31.90 -69.10 65
NA 09:00:00 TS 32.04 -69.29 65
NA 12:00:00 TS 32.20 -69.40 65
NA 15:00:00 TS 32.39 -69.34 65
NA 18:00:00 TS 32.60 -69.20 65
NA 21:00:00 TS 32.80 -69.10 65
NA 1860-09-19 00:00:00 TS 33.00 -69.00 65
NA 03:00:00 TS 33.20 -68.91 65
NA 06:00:00 TS 33.40 -68.80 65
NA 09:00:00 TS 33.61 -68.65 65
NA 12:00:00 TS 33.80 -68.50 65
NA 15:00:00 TS 33.96 -68.38 65
NA 18:00:00 TS 34.10 -68.30 65
NA 21:00:00 TS 34.25 -68.24 65
NA 1860-09-20 00:00:00 TS 34.40 -68.20 65
NA 03:00:00 TS 34.55 -68.15 65
NA 06:00:00 TS 34.70 -68.10 65
NA 09:00:00 TS 34.83 -68.08 65
NA 12:00:00 TS 35.00 -68.00 65
NA 15:00:00 TS 35.24 -67.78 65
NA 18:00:00 TS 35.50 -67.50 65
NA 21:00:00 TS 35.75 -67.25 65
NA 1860-09-21 00:00:00 TS 36.00 -67.00 65
NA 03:00:00 TS 36.25 -66.75 65
NA 06:00:00 TS 36.50 -66.50 65
NA 09:00:00 TS 36.73 -66.30 65
NA 12:00:00 TS 37.00 -66.00 65
NA 15:00:00 TS 37.37 -65.47 57
NA 18:00:00 TS 37.80 -64.80 50

Source Information

Agency Information
USA
TOKYO
CMA
HKO
NEWDELHI
REUNION
BOM
NADI
WELLINGTON
DS824
TD9636
TD9635
NEUMANN
MLC

All available IBTrACS Data

SEASON BASIN SUBBASIN ISO_TIME_________ NATURE LAT LON DIST2LAND LANDFALL IFLAG USA SSHS MLC LAT MLC LON MLC CLASS MLC WIND STORM SPEED STORM DIR
Year degrees north degrees east km km 1 degrees north degrees east kts kts degrees
1860 NA NA 1860-09-14 12:00:00 TS 26.50 -64.50 912 912 _____________O -1 26.50 -64.50 TD 30 6 324
1860 NA NA 15:00:00 TS 26.76 -64.71 943 942 _____________P -1 26.76 -64.71 TD 30 6 324
1860 NA NA 18:00:00 TS 27.00 -64.90 964 964 _____________O -1 27.00 -64.90 TD 30 5 325
1860 NA NA 21:00:00 TS 27.21 -65.06 981 981 _____________P -1 27.21 -65.06 TD 30 5 326
1860 NA NA 1860-09-15 00:00:00 TS 27.40 -65.20 997 997 _____________O -1 27.40 -65.20 TD 30 5 327
1860 NA NA 03:00:00 TS 27.60 -65.35 1009 1009 _____________P -1 27.60 -65.35 TD 30 5 326
1860 NA NA 06:00:00 TS 27.80 -65.50 1024 1024 _____________O -1 27.80 -65.50 TD 30 5 325
1860 NA NA 09:00:00 TS 27.99 -65.66 1035 1035 _____________P -1 27.99 -65.66 TD 32 5 326
1860 NA NA 12:00:00 TS 28.20 -65.80 1051 1051 _____________O -1 28.20 -65.80 TS 35 5 334
1860 NA NA 15:00:00 TS 28.45 -65.91 1067 1067 _____________P -1 28.45 -65.91 TS 37 5 340
1860 NA NA 18:00:00 TS 28.70 -66.00 1094 1094 _____________O -1 28.70 -66.00 TS 40 5 340
1860 NA NA 21:00:00 TS 28.91 -66.10 1105 1105 _____________P -1 28.91 -66.10 TS 45 4 336
1860 NA NA 1860-09-16 00:00:00 TS 29.10 -66.20 1116 1116 _____________O -1 29.10 -66.20 TS 50 4 335
1860 NA NA 03:00:00 TS 29.29 -66.30 1124 1102 _____________P -1 29.29 -66.30 TS 55 4 337
1860 NA NA 06:00:00 TS 29.50 -66.40 1102 1080 _____________O -1 29.50 -66.40 TS 60 5 341
1860 NA NA 09:00:00 TS 29.76 -66.49 1072 1050 _____________P -1 29.76 -66.49 TS 60 5 341
1860 NA NA 12:00:00 TS 30.00 -66.60 1050 1021 _____________O -1 30.00 -66.60 TS 60 5 328
1860 NA NA 15:00:00 TS 30.17 -66.79 1021 999 _____________P -1 30.17 -66.79 TS 62 5 311
1860 NA NA 18:00:00 TS 30.30 -67.00 999 978 _____________O -1 30.30 -67.00 HU 65 4 302
1860 NA NA 21:00:00 TS 30.40 -67.20 978 956 _____________P -1 30.40 -67.20 HU 65 4 300
1860 NA NA 1860-09-17 00:00:00 TS 30.50 -67.40 956 934 _____________O -1 30.50 -67.40 HU 65 4 306
1860 NA NA 03:00:00 TS 30.65 -67.60 934 905 _____________P -1 30.65 -67.60 HU 65 5 311
1860 NA NA 06:00:00 TS 30.80 -67.80 905 883 _____________O -1 30.80 -67.80 HU 65 4 306
1860 NA NA 09:00:00 TS 30.90 -68.01 883 862 _____________P -1 30.90 -68.01 HU 65 4 300
1860 NA NA 12:00:00 TS 31.00 -68.20 862 847 _____________O -1 31.00 -68.20 HU 65 4 309
1860 NA NA 15:00:00 TS 31.14 -68.36 840 818 _____________P -1 31.14 -68.36 HU 65 4 320
1860 NA NA 18:00:00 TS 31.30 -68.50 818 804 _____________O -1 31.30 -68.50 HU 65 4 321
1860 NA NA 21:00:00 TS 31.45 -68.65 796 775 _____________P -1 31.45 -68.65 HU 65 4 320
1860 NA NA 1860-09-18 00:00:00 TS 31.60 -68.80 775 761 _____________O -1 31.60 -68.80 HU 65 4 320
1860 NA NA 03:00:00 TS 31.75 -68.95 753 732 _____________P -1 31.75 -68.95 HU 65 4 320
1860 NA NA 06:00:00 TS 31.90 -69.10 732 710 _____________O -1 31.90 -69.10 HU 65 4 316
1860 NA NA 09:00:00 TS 32.04 -69.29 710 689 _____________P -1 32.04 -69.29 HU 65 4 320
1860 NA NA 12:00:00 TS 32.20 -69.40 689 676 _____________O -1 32.20 -69.40 HU 65 4 354
1860 NA NA 15:00:00 TS 32.39 -69.34 684 677 _____________P -1 32.39 -69.34 HU 65 4 23
1860 NA NA 18:00:00 TS 32.60 -69.20 679 673 _____________O -1 32.60 -69.20 HU 65 5 26
1860 NA NA 21:00:00 TS 32.80 -69.10 675 669 _____________P -1 32.80 -69.10 HU 65 4 23
1860 NA NA 1860-09-19 00:00:00 TS 33.00 -69.00 671 666 _____________O -1 33.00 -69.00 HU 65 4 22
1860 NA NA 03:00:00 TS 33.20 -68.91 669 664 _____________P -1 33.20 -68.91 HU 65 4 23
1860 NA NA 06:00:00 TS 33.40 -68.80 667 662 _____________O -1 33.40 -68.80 HU 65 5 28
1860 NA NA 09:00:00 TS 33.61 -68.65 666 666 _____________P -1 33.61 -68.65 HU 65 5 32
1860 NA NA 12:00:00 TS 33.80 -68.50 675 671 _____________O -1 33.80 -68.50 HU 65 4 32
1860 NA NA 15:00:00 TS 33.96 -68.38 676 676 _____________P -1 33.96 -68.38 HU 65 3 29
1860 NA NA 18:00:00 TS 34.10 -68.30 681 678 _____________O -1 34.10 -68.30 HU 65 3 22
1860 NA NA 21:00:00 TS 34.25 -68.24 686 680 _____________P -1 34.25 -68.24 HU 65 3 14
1860 NA NA 1860-09-20 00:00:00 TS 34.40 -68.20 680 677 _____________O -1 34.40 -68.20 HU 65 3 14
1860 NA NA 03:00:00 TS 34.55 -68.15 683 681 _____________P -1 34.55 -68.15 HU 65 3 14
1860 NA NA 06:00:00 TS 34.70 -68.10 681 679 _____________O -1 34.70 -68.10 HU 65 3 11
1860 NA NA 09:00:00 TS 34.83 -68.08 679 676 _____________P -1 34.83 -68.08 HU 65 3 14
1860 NA NA 12:00:00 TS 35.00 -68.00 683 682 _____________O -1 35.00 -68.00 HU 65 5 31
1860 NA NA 15:00:00 TS 35.24 -67.78 698 697 _____________P -1 35.24 -67.78 HU 65 6 39
1860 NA NA 18:00:00 TS 35.50 -67.50 721 707 _____________O -1 35.50 -67.50 HU 65 7 40
1860 NA NA 21:00:00 TS 35.75 -67.25 710 685 _____________P -1 35.75 -67.25 HU 65 6 39
1860 NA NA 1860-09-21 00:00:00 TS 36.00 -67.00 685 671 _____________O -1 36.00 -67.00 HU 65 6 39
1860 NA NA 03:00:00 TS 36.25 -66.75 675 652 _____________P -1 36.25 -66.75 HU 65 6 39
1860 NA NA 06:00:00 TS 36.50 -66.50 652 636 _____________O -1 36.50 -66.50 HU 65 6 37
1860 NA NA 09:00:00 TS 36.73 -66.30 640 625 _____________P -1 36.73 -66.30 HU 65 6 39
1860 NA NA 12:00:00 TS 37.00 -66.00 625 616 _____________O -1 37.00 -66.00 HU 65 9 46
1860 NA NA 15:00:00 TS 37.37 -65.47 613 613 _____________P -1 37.37 -65.47 HU 57 12 50
1860 NA NA 18:00:00 TS 37.80 -64.80 620 _____________O -1 37.80 -64.80 TS 50 14 51